sensor_id;sensor_type;location;lat;lon;timestamp;P1;durP1;ratioP1;P2;durP2;ratioP2
7519;SDS011;3801;48.876;10.184;2023-12-20T00:02:51;4.17;;;2.10;;
7519;SDS011;3801;48.876;10.184;2023-12-20T00:07:55;1.93;;;1.73;;
7519;SDS011;3801;48.876;10.184;2023-12-20T00:13:00;3.83;;;2.27;;
7519;SDS011;3801;48.876;10.184;2023-12-20T00:18:05;2.20;;;2.00;;
7519;SDS011;3801;48.876;10.184;2023-12-20T00:23:09;2.70;;;2.00;;
7519;SDS011;3801;48.876;10.184;2023-12-20T00:28:12;3.73;;;2.30;;
7519;SDS011;3801;48.876;10.184;2023-12-20T00:33:18;2.50;;;2.30;;
7519;SDS011;3801;48.876;10.184;2023-12-20T00:38:22;2.50;;;2.20;;
7519;SDS011;3801;48.876;10.184;2023-12-20T00:43:26;3.17;;;1.97;;
7519;SDS011;3801;48.876;10.184;2023-12-20T00:48:31;2.60;;;2.10;;
7519;SDS011;3801;48.876;10.184;2023-12-20T00:53:34;2.47;;;1.80;;
7519;SDS011;3801;48.876;10.184;2023-12-20T00:58:39;1.70;;;1.60;;
7519;SDS011;3801;48.876;10.184;2023-12-20T01:03:43;3.37;;;1.77;;
7519;SDS011;3801;48.876;10.184;2023-12-20T01:08:47;3.07;;;1.80;;
7519;SDS011;3801;48.876;10.184;2023-12-20T01:13:51;2.17;;;1.70;;
7519;SDS011;3801;48.876;10.184;2023-12-20T01:18:56;3.57;;;1.87;;
7519;SDS011;3801;48.876;10.184;2023-12-20T01:24:01;2.17;;;1.90;;
7519;SDS011;3801;48.876;10.184;2023-12-20T01:29:06;2.60;;;1.83;;
7519;SDS011;3801;48.876;10.184;2023-12-20T01:34:11;2.60;;;1.70;;
7519;SDS011;3801;48.876;10.184;2023-12-20T01:39:17;2.07;;;1.87;;
7519;SDS011;3801;48.876;10.184;2023-12-20T01:44:30;2.30;;;1.70;;
7519;SDS011;3801;48.876;10.184;2023-12-20T01:49:36;2.60;;;1.90;;
7519;SDS011;3801;48.876;10.184;2023-12-20T01:54:40;2.77;;;1.73;;
7519;SDS011;3801;48.876;10.184;2023-12-20T01:59:43;1.80;;;1.70;;
7519;SDS011;3801;48.876;10.184;2023-12-20T02:04:49;4.27;;;1.90;;
7519;SDS011;3801;48.876;10.184;2023-12-20T02:09:53;2.27;;;1.97;;
7519;SDS011;3801;48.876;10.184;2023-12-20T02:14:57;3.00;;;1.97;;
7519;SDS011;3801;48.876;10.184;2023-12-20T02:20:02;4.87;;;2.17;;
7519;SDS011;3801;48.876;10.184;2023-12-20T02:25:09;2.80;;;1.97;;
7519;SDS011;3801;48.876;10.184;2023-12-20T02:30:12;3.47;;;2.50;;
7519;SDS011;3801;48.876;10.184;2023-12-20T02:35:19;1.37;;;1.27;;
7519;SDS011;3801;48.876;10.184;2023-12-20T05:12:58;1.30;;;1.20;;
7519;SDS011;3801;48.876;10.184;2023-12-20T05:24:01;0.90;;;0.90;;
7519;SDS011;3801;48.876;10.184;2023-12-20T05:34:44;1.10;;;1.00;;
7519;SDS011;3801;48.876;10.184;2023-12-20T05:39:54;0.80;;;0.80;;
7519;SDS011;3801;48.876;10.184;2023-12-20T05:51:56;1.90;;;1.10;;
7519;SDS011;3801;48.876;10.184;2023-12-20T05:57:02;1.30;;;1.20;;
7519;SDS011;3801;48.876;10.184;2023-12-20T06:02:08;1.17;;;1.10;;
7519;SDS011;3801;48.876;10.184;2023-12-20T06:12:43;1.50;;;1.40;;
7519;SDS011;3801;48.876;10.184;2023-12-20T06:18:03;1.57;;;1.47;;
7519;SDS011;3801;48.876;10.184;2023-12-20T06:23:22;1.37;;;1.27;;
7519;SDS011;3801;48.876;10.184;2023-12-20T06:28:50;1.70;;;1.60;;
7519;SDS011;3801;48.876;10.184;2023-12-20T06:34:02;1.37;;;1.27;;
7519;SDS011;3801;48.876;10.184;2023-12-20T06:39:28;1.80;;;1.70;;
7519;SDS011;3801;48.876;10.184;2023-12-20T06:50:04;1.60;;;1.50;;
7519;SDS011;3801;48.876;10.184;2023-12-20T06:55:34;1.70;;;1.60;;
7519;SDS011;3801;48.876;10.184;2023-12-20T07:00:41;2.43;;;2.00;;
7519;SDS011;3801;48.876;10.184;2023-12-20T07:05:49;2.00;;;1.63;;
7519;SDS011;3801;48.876;10.184;2023-12-20T07:10:57;1.77;;;1.67;;
7519;SDS011;3801;48.876;10.184;2023-12-20T07:16:01;2.27;;;2.07;;
7519;SDS011;3801;48.876;10.184;2023-12-20T07:21:06;2.27;;;2.07;;
7519;SDS011;3801;48.876;10.184;2023-12-20T07:26:11;2.33;;;2.13;;
7519;SDS011;3801;48.876;10.184;2023-12-20T07:31:15;1.93;;;1.83;;
7519;SDS011;3801;48.876;10.184;2023-12-20T07:41:45;2.60;;;2.40;;
7519;SDS011;3801;48.876;10.184;2023-12-20T07:47:01;2.17;;;1.97;;
7519;SDS011;3801;48.876;10.184;2023-12-20T07:52:11;2.37;;;2.17;;
7519;SDS011;3801;48.876;10.184;2023-12-20T07:57:23;2.67;;;2.47;;
7519;SDS011;3801;48.876;10.184;2023-12-20T08:02:53;4.53;;;2.83;;
7519;SDS011;3801;48.876;10.184;2023-12-20T08:08:04;5.60;;;4.20;;
7519;SDS011;3801;48.876;10.184;2023-12-20T08:13:14;4.80;;;3.97;;
7519;SDS011;3801;48.876;10.184;2023-12-20T08:18:25;4.07;;;3.60;;
7519;SDS011;3801;48.876;10.184;2023-12-20T08:23:42;4.10;;;3.30;;
7519;SDS011;3801;48.876;10.184;2023-12-20T08:29:07;4.93;;;3.13;;
7519;SDS011;3801;48.876;10.184;2023-12-20T08:34:13;3.90;;;3.13;;
7519;SDS011;3801;48.876;10.184;2023-12-20T08:39:34;5.17;;;4.20;;
7519;SDS011;3801;48.876;10.184;2023-12-20T09:07:34;5.70;;;4.70;;
7519;SDS011;3801;48.876;10.184;2023-12-20T09:12:50;5.60;;;4.97;;
7519;SDS011;3801;48.876;10.184;2023-12-20T09:18:08;5.83;;;4.80;;
7519;SDS011;3801;48.876;10.184;2023-12-20T09:23:51;8.03;;;6.17;;
7519;SDS011;3801;48.876;10.184;2023-12-20T09:29:01;7.87;;;6.20;;
7519;SDS011;3801;48.876;10.184;2023-12-20T09:34:11;6.27;;;5.33;;
7519;SDS011;3801;48.876;10.184;2023-12-20T09:39:30;6.27;;;5.37;;
7519;SDS011;3801;48.876;10.184;2023-12-20T09:44:35;7.13;;;5.93;;
7519;SDS011;3801;48.876;10.184;2023-12-20T09:49:50;5.90;;;4.93;;
7519;SDS011;3801;48.876;10.184;2023-12-20T09:55:07;7.10;;;4.50;;
7519;SDS011;3801;48.876;10.184;2023-12-20T10:00:35;4.93;;;4.30;;
7519;SDS011;3801;48.876;10.184;2023-12-20T10:05:43;7.40;;;3.60;;
7519;SDS011;3801;48.876;10.184;2023-12-20T10:10:57;4.17;;;3.77;;
7519;SDS011;3801;48.876;10.184;2023-12-20T10:16:09;3.63;;;3.10;;
7519;SDS011;3801;48.876;10.184;2023-12-20T10:21:22;5.10;;;3.80;;
7519;SDS011;3801;48.876;10.184;2023-12-20T10:26:31;3.63;;;2.70;;
7519;SDS011;3801;48.876;10.184;2023-12-20T10:31:36;3.90;;;3.30;;
7519;SDS011;3801;48.876;10.184;2023-12-20T10:36:43;7.60;;;3.60;;
7519;SDS011;3801;48.876;10.184;2023-12-20T10:41:50;4.83;;;3.20;;
7519;SDS011;3801;48.876;10.184;2023-12-20T10:46:57;3.90;;;3.00;;
7519;SDS011;3801;48.876;10.184;2023-12-20T10:52:04;3.97;;;2.70;;
7519;SDS011;3801;48.876;10.184;2023-12-20T10:57:11;4.57;;;3.10;;
7519;SDS011;3801;48.876;10.184;2023-12-20T11:02:14;3.07;;;2.73;;
7519;SDS011;3801;48.876;10.184;2023-12-20T11:07:20;3.03;;;2.73;;
7519;SDS011;3801;48.876;10.184;2023-12-20T11:12:28;6.97;;;2.90;;
7519;SDS011;3801;48.876;10.184;2023-12-20T11:17:35;4.83;;;2.70;;
7519;SDS011;3801;48.876;10.184;2023-12-20T11:22:39;7.00;;;3.03;;
7519;SDS011;3801;48.876;10.184;2023-12-20T11:28:09;5.60;;;2.83;;
7519;SDS011;3801;48.876;10.184;2023-12-20T11:33:14;4.43;;;2.47;;
7519;SDS011;3801;48.876;10.184;2023-12-20T11:38:19;4.47;;;2.87;;
7519;SDS011;3801;48.876;10.184;2023-12-20T11:43:31;4.17;;;2.80;;
7519;SDS011;3801;48.876;10.184;2023-12-20T11:48:37;5.40;;;2.30;;
7519;SDS011;3801;48.876;10.184;2023-12-20T11:53:40;4.27;;;2.20;;
7519;SDS011;3801;48.876;10.184;2023-12-20T11:58:46;3.63;;;2.40;;
7519;SDS011;3801;48.876;10.184;2023-12-20T12:04:01;6.57;;;2.10;;
7519;SDS011;3801;48.876;10.184;2023-12-20T12:09:05;5.67;;;2.23;;
7519;SDS011;3801;48.876;10.184;2023-12-20T12:14:10;4.93;;;1.97;;
7519;SDS011;3801;48.876;10.184;2023-12-20T12:19:20;8.23;;;2.47;;
7519;SDS011;3801;48.876;10.184;2023-12-20T12:24:24;6.10;;;2.30;;
7519;SDS011;3801;48.876;10.184;2023-12-20T12:29:30;4.43;;;2.10;;
7519;SDS011;3801;48.876;10.184;2023-12-20T12:34:34;5.13;;;2.13;;
7519;SDS011;3801;48.876;10.184;2023-12-20T12:39:38;5.40;;;2.00;;
7519;SDS011;3801;48.876;10.184;2023-12-20T12:44:44;5.27;;;2.10;;
7519;SDS011;3801;48.876;10.184;2023-12-20T12:49:47;5.50;;;1.97;;
7519;SDS011;3801;48.876;10.184;2023-12-20T12:54:52;4.67;;;2.43;;
7519;SDS011;3801;48.876;10.184;2023-12-20T12:59:58;5.77;;;2.30;;
7519;SDS011;3801;48.876;10.184;2023-12-20T13:05:01;8.17;;;2.40;;
7519;SDS011;3801;48.876;10.184;2023-12-20T13:10:07;5.83;;;2.20;;
7519;SDS011;3801;48.876;10.184;2023-12-20T13:15:13;3.87;;;2.30;;
7519;SDS011;3801;48.876;10.184;2023-12-20T13:20:16;4.53;;;1.97;;
7519;SDS011;3801;48.876;10.184;2023-12-20T13:25:20;5.30;;;2.10;;
7519;SDS011;3801;48.876;10.184;2023-12-20T13:30:25;6.67;;;2.53;;
7519;SDS011;3801;48.876;10.184;2023-12-20T13:35:29;2.27;;;2.07;;
7519;SDS011;3801;48.876;10.184;2023-12-20T13:40:34;5.17;;;2.83;;
7519;SDS011;3801;48.876;10.184;2023-12-20T13:45:40;4.33;;;1.63;;
7519;SDS011;3801;48.876;10.184;2023-12-20T13:50:47;6.40;;;2.47;;
7519;SDS011;3801;48.876;10.184;2023-12-20T13:55:51;4.57;;;2.30;;
7519;SDS011;3801;48.876;10.184;2023-12-20T14:00:58;7.93;;;2.63;;
7519;SDS011;3801;48.876;10.184;2023-12-20T14:06:02;3.53;;;2.43;;
7519;SDS011;3801;48.876;10.184;2023-12-20T14:11:07;8.13;;;2.63;;
7519;SDS011;3801;48.876;10.184;2023-12-20T14:16:12;9.50;;;2.30;;
7519;SDS011;3801;48.876;10.184;2023-12-20T14:21:16;6.70;;;2.70;;
7519;SDS011;3801;48.876;10.184;2023-12-20T14:26:20;9.97;;;5.50;;
7519;SDS011;3801;48.876;10.184;2023-12-20T14:31:25;4.30;;;2.10;;
7519;SDS011;3801;48.876;10.184;2023-12-20T14:36:28;6.97;;;2.50;;
7519;SDS011;3801;48.876;10.184;2023-12-20T14:41:33;7.77;;;2.30;;
7519;SDS011;3801;48.876;10.184;2023-12-20T14:46:42;4.00;;;2.90;;
7519;SDS011;3801;48.876;10.184;2023-12-20T14:51:45;3.90;;;2.73;;
7519;SDS011;3801;48.876;10.184;2023-12-20T14:56:50;4.83;;;2.90;;
7519;SDS011;3801;48.876;10.184;2023-12-20T15:01:55;4.70;;;2.30;;
7519;SDS011;3801;48.876;10.184;2023-12-20T15:06:59;2.47;;;1.77;;
7519;SDS011;3801;48.876;10.184;2023-12-20T15:12:04;4.90;;;2.63;;
7519;SDS011;3801;48.876;10.184;2023-12-20T15:17:10;6.17;;;3.27;;
7519;SDS011;3801;48.876;10.184;2023-12-20T15:22:13;3.47;;;1.60;;
7519;SDS011;3801;48.876;10.184;2023-12-20T15:27:17;5.33;;;2.67;;
7519;SDS011;3801;48.876;10.184;2023-12-20T15:32:25;7.23;;;2.70;;
7519;SDS011;3801;48.876;10.184;2023-12-20T15:37:30;5.27;;;2.30;;
7519;SDS011;3801;48.876;10.184;2023-12-20T15:42:34;7.57;;;2.67;;
7519;SDS011;3801;48.876;10.184;2023-12-20T15:47:39;9.03;;;2.87;;
7519;SDS011;3801;48.876;10.184;2023-12-20T15:52:44;4.60;;;2.43;;
7519;SDS011;3801;48.876;10.184;2023-12-20T15:57:48;4.67;;;2.40;;
7519;SDS011;3801;48.876;10.184;2023-12-20T16:02:57;5.63;;;3.00;;
7519;SDS011;3801;48.876;10.184;2023-12-20T16:08:02;17.27;;;6.73;;
7519;SDS011;3801;48.876;10.184;2023-12-20T16:13:06;6.27;;;4.10;;
7519;SDS011;3801;48.876;10.184;2023-12-20T16:18:13;7.40;;;4.30;;
7519;SDS011;3801;48.876;10.184;2023-12-20T16:23:16;4.97;;;2.40;;
7519;SDS011;3801;48.876;10.184;2023-12-20T16:28:21;5.73;;;3.30;;
7519;SDS011;3801;48.876;10.184;2023-12-20T16:33:27;6.93;;;3.80;;
7519;SDS011;3801;48.876;10.184;2023-12-20T16:38:31;4.20;;;2.60;;
7519;SDS011;3801;48.876;10.184;2023-12-20T16:43:37;3.80;;;2.50;;
7519;SDS011;3801;48.876;10.184;2023-12-20T16:48:43;4.53;;;3.37;;
7519;SDS011;3801;48.876;10.184;2023-12-20T16:53:48;5.77;;;3.27;;
7519;SDS011;3801;48.876;10.184;2023-12-20T16:58:54;5.73;;;3.37;;
7519;SDS011;3801;48.876;10.184;2023-12-20T17:03:59;7.50;;;4.77;;
7519;SDS011;3801;48.876;10.184;2023-12-20T17:09:03;5.93;;;2.70;;
7519;SDS011;3801;48.876;10.184;2023-12-20T17:14:08;10.20;;;4.47;;
7519;SDS011;3801;48.876;10.184;2023-12-20T17:19:16;3.53;;;2.70;;
7519;SDS011;3801;48.876;10.184;2023-12-20T17:24:21;5.60;;;3.17;;
7519;SDS011;3801;48.876;10.184;2023-12-20T17:29:25;7.27;;;3.97;;
7519;SDS011;3801;48.876;10.184;2023-12-20T17:34:30;4.10;;;2.37;;
7519;SDS011;3801;48.876;10.184;2023-12-20T17:39:35;7.77;;;3.63;;
7519;SDS011;3801;48.876;10.184;2023-12-20T17:44:39;3.17;;;2.47;;
7519;SDS011;3801;48.876;10.184;2023-12-20T17:49:44;4.17;;;2.67;;
7519;SDS011;3801;48.876;10.184;2023-12-20T17:54:48;5.40;;;1.90;;
7519;SDS011;3801;48.876;10.184;2023-12-20T17:59:51;4.83;;;2.50;;
7519;SDS011;3801;48.876;10.184;2023-12-20T18:04:57;2.43;;;2.13;;
7519;SDS011;3801;48.876;10.184;2023-12-20T18:10:00;6.50;;;3.17;;
7519;SDS011;3801;48.876;10.184;2023-12-20T18:15:06;3.73;;;2.00;;
7519;SDS011;3801;48.876;10.184;2023-12-20T18:20:12;2.60;;;2.40;;
7519;SDS011;3801;48.876;10.184;2023-12-20T18:25:16;5.53;;;2.13;;
7519;SDS011;3801;48.876;10.184;2023-12-20T18:30:20;4.00;;;1.70;;
7519;SDS011;3801;48.876;10.184;2023-12-20T18:35:28;3.30;;;1.87;;
7519;SDS011;3801;48.876;10.184;2023-12-20T18:40:32;7.00;;;2.27;;
7519;SDS011;3801;48.876;10.184;2023-12-20T18:45:37;3.27;;;2.37;;
7519;SDS011;3801;48.876;10.184;2023-12-20T18:50:42;4.17;;;2.47;;
7519;SDS011;3801;48.876;10.184;2023-12-20T18:55:45;3.53;;;2.33;;
7519;SDS011;3801;48.876;10.184;2023-12-20T19:00:49;4.67;;;2.30;;
7519;SDS011;3801;48.876;10.184;2023-12-20T19:05:54;4.67;;;2.53;;
7519;SDS011;3801;48.876;10.184;2023-12-20T19:10:59;3.67;;;1.93;;
7519;SDS011;3801;48.876;10.184;2023-12-20T19:16:03;3.50;;;2.03;;
7519;SDS011;3801;48.876;10.184;2023-12-20T19:21:08;3.90;;;2.27;;
7519;SDS011;3801;48.876;10.184;2023-12-20T19:26:12;5.53;;;1.70;;
7519;SDS011;3801;48.876;10.184;2023-12-20T19:31:16;5.70;;;2.60;;
7519;SDS011;3801;48.876;10.184;2023-12-20T19:36:23;4.30;;;2.47;;
7519;SDS011;3801;48.876;10.184;2023-12-20T19:41:26;4.70;;;2.57;;
7519;SDS011;3801;48.876;10.184;2023-12-20T19:46:29;6.87;;;2.30;;
7519;SDS011;3801;48.876;10.184;2023-12-20T19:51:34;4.83;;;2.33;;
7519;SDS011;3801;48.876;10.184;2023-12-20T19:56:38;3.33;;;1.87;;
7519;SDS011;3801;48.876;10.184;2023-12-20T20:01:41;5.03;;;2.10;;
7519;SDS011;3801;48.876;10.184;2023-12-20T20:06:47;3.83;;;2.10;;
7519;SDS011;3801;48.876;10.184;2023-12-20T20:11:52;5.80;;;2.97;;
7519;SDS011;3801;48.876;10.184;2023-12-20T20:16:56;4.10;;;2.10;;
7519;SDS011;3801;48.876;10.184;2023-12-20T20:22:03;4.10;;;1.73;;
7519;SDS011;3801;48.876;10.184;2023-12-20T20:27:08;3.83;;;1.87;;
7519;SDS011;3801;48.876;10.184;2023-12-20T20:32:11;4.27;;;2.90;;
7519;SDS011;3801;48.876;10.184;2023-12-20T20:37:17;3.03;;;2.17;;
7519;SDS011;3801;48.876;10.184;2023-12-20T20:42:21;4.03;;;2.10;;
7519;SDS011;3801;48.876;10.184;2023-12-20T20:47:24;7.67;;;2.40;;
7519;SDS011;3801;48.876;10.184;2023-12-20T20:52:30;6.83;;;2.57;;
7519;SDS011;3801;48.876;10.184;2023-12-20T20:57:34;3.67;;;2.43;;
7519;SDS011;3801;48.876;10.184;2023-12-20T21:02:38;1.63;;;1.47;;
7519;SDS011;3801;48.876;10.184;2023-12-20T21:07:43;3.10;;;1.83;;
7519;SDS011;3801;48.876;10.184;2023-12-20T21:12:47;2.57;;;1.60;;
7519;SDS011;3801;48.876;10.184;2023-12-20T21:17:51;2.80;;;1.63;;
7519;SDS011;3801;48.876;10.184;2023-12-20T21:22:56;3.10;;;2.00;;
7519;SDS011;3801;48.876;10.184;2023-12-20T21:28:00;5.13;;;1.70;;
7519;SDS011;3801;48.876;10.184;2023-12-20T21:33:04;3.43;;;1.80;;
7519;SDS011;3801;48.876;10.184;2023-12-20T21:38:09;3.93;;;1.63;;
7519;SDS011;3801;48.876;10.184;2023-12-20T21:43:12;3.43;;;1.73;;
7519;SDS011;3801;48.876;10.184;2023-12-20T21:48:17;3.23;;;1.83;;
7519;SDS011;3801;48.876;10.184;2023-12-20T21:53:22;2.53;;;1.40;;
7519;SDS011;3801;48.876;10.184;2023-12-20T21:58:26;1.97;;;1.30;;
7519;SDS011;3801;48.876;10.184;2023-12-20T22:03:30;2.30;;;1.43;;
7519;SDS011;3801;48.876;10.184;2023-12-20T22:08:34;4.40;;;1.47;;
7519;SDS011;3801;48.876;10.184;2023-12-20T22:13:38;3.07;;;1.40;;
7519;SDS011;3801;48.876;10.184;2023-12-20T22:18:43;2.53;;;1.50;;
7519;SDS011;3801;48.876;10.184;2023-12-20T22:23:48;2.53;;;1.60;;
7519;SDS011;3801;48.876;10.184;2023-12-20T22:28:51;3.57;;;1.20;;
7519;SDS011;3801;48.876;10.184;2023-12-20T22:33:55;4.33;;;1.60;;
7519;SDS011;3801;48.876;10.184;2023-12-20T22:38:59;1.57;;;1.17;;
7519;SDS011;3801;48.876;10.184;2023-12-20T22:44:03;1.97;;;1.67;;
7519;SDS011;3801;48.876;10.184;2023-12-20T22:49:07;2.17;;;1.40;;
7519;SDS011;3801;48.876;10.184;2023-12-20T22:54:12;3.67;;;1.80;;
7519;SDS011;3801;48.876;10.184;2023-12-20T22:59:16;3.60;;;1.40;;
7519;SDS011;3801;48.876;10.184;2023-12-20T23:04:20;1.87;;;1.47;;
7519;SDS011;3801;48.876;10.184;2023-12-20T23:09:27;4.50;;;1.40;;
7519;SDS011;3801;48.876;10.184;2023-12-20T23:14:30;3.07;;;1.90;;
7519;SDS011;3801;48.876;10.184;2023-12-20T23:19:36;1.90;;;1.30;;
7519;SDS011;3801;48.876;10.184;2023-12-20T23:24:41;1.73;;;1.23;;
7519;SDS011;3801;48.876;10.184;2023-12-20T23:29:45;1.00;;;1.00;;
7519;SDS011;3801;48.876;10.184;2023-12-20T23:34:49;1.90;;;1.30;;
7519;SDS011;3801;48.876;10.184;2023-12-20T23:40:11;3.10;;;1.00;;
7519;SDS011;3801;48.876;10.184;2023-12-20T23:45:15;3.00;;;1.10;;
7519;SDS011;3801;48.876;10.184;2023-12-20T23:50:18;0.70;;;0.70;;
7519;SDS011;3801;48.876;10.184;2023-12-20T23:55:23;1.87;;;1.10;;
